createdAt,value
2018-06-28T00:01:02.977Z,17.30
2018-06-28T00:03:31.343Z,17.30
2018-06-28T00:05:59.712Z,17.40
2018-06-28T00:08:28.088Z,17.30
2018-06-28T00:10:56.474Z,17.30
2018-06-28T00:13:24.828Z,17.30
2018-06-28T00:15:53.219Z,17.30
2018-06-28T00:18:21.675Z,17.30
2018-06-28T00:20:50.103Z,17.30
2018-06-28T00:23:18.555Z,17.30
2018-06-28T00:25:46.982Z,17.40
2018-06-28T00:28:15.408Z,17.30
2018-06-28T00:30:43.866Z,17.30
2018-06-28T00:35:40.395Z,17.30
2018-06-28T00:38:08.825Z,17.30
2018-06-28T00:40:37.259Z,17.20
2018-06-28T00:43:05.684Z,16.90
2018-06-28T00:45:34.086Z,16.90
2018-06-28T00:48:02.520Z,16.90
2018-06-28T00:50:30.932Z,16.90
2018-06-28T00:52:59.379Z,16.90
2018-06-28T00:55:27.797Z,16.90
2018-06-28T00:57:56.246Z,16.80
2018-06-28T01:00:24.679Z,16.80
2018-06-28T01:02:53.099Z,16.80
2018-06-28T01:05:21.546Z,16.70
2018-06-28T01:07:50.005Z,16.70
2018-06-28T01:10:18.412Z,16.70
2018-06-28T01:12:46.905Z,16.60
2018-06-28T01:15:15.327Z,16.60
2018-06-28T01:17:43.854Z,16.60
2018-06-28T01:20:12.272Z,16.60
2018-06-28T01:22:40.727Z,16.60
2018-06-28T01:25:09.145Z,16.50
2018-06-28T01:27:37.603Z,16.50
2018-06-28T01:30:06.773Z,16.40
2018-06-28T01:32:35.230Z,16.40
2018-06-28T01:35:03.703Z,16.20
2018-06-28T01:37:32.201Z,16.20
2018-06-28T01:40:00.627Z,16.10
2018-06-28T01:42:41.012Z,16.20
2018-06-28T01:45:09.464Z,16.10
2018-06-28T01:47:38.067Z,16.10
2018-06-28T01:50:06.514Z,16.00
2018-06-28T01:52:34.941Z,16.10
2018-06-28T01:55:03.379Z,16.10
2018-06-28T01:57:31.854Z,16.00
2018-06-28T02:00:00.290Z,15.70
2018-06-28T02:02:28.704Z,15.60
2018-06-28T02:04:57.128Z,15.60
2018-06-28T02:07:25.571Z,15.50
2018-06-28T02:09:53.974Z,15.50
2018-06-28T02:12:22.426Z,15.40
2018-06-28T02:14:50.855Z,15.40
2018-06-28T02:17:19.259Z,15.40
2018-06-28T02:19:47.733Z,15.30
2018-06-28T02:22:16.169Z,15.40
2018-06-28T02:24:44.712Z,15.40
2018-06-28T02:27:13.108Z,15.30
2018-06-28T02:29:41.523Z,15.30
2018-06-28T02:32:09.904Z,15.30
2018-06-28T02:34:38.408Z,15.30
2018-06-28T02:37:06.834Z,15.20
2018-06-28T02:39:35.318Z,15.10
2018-06-28T02:42:04.021Z,15.10
2018-06-28T02:44:32.519Z,15.00
2018-06-28T02:47:00.947Z,15.00
2018-06-28T02:49:29.400Z,15.00
2018-06-28T02:51:57.810Z,15.00
2018-06-28T02:54:26.277Z,15.00
2018-06-28T02:56:54.720Z,14.90
2018-06-28T02:59:23.147Z,14.90
2018-06-28T03:01:51.566Z,14.90
2018-06-28T03:04:20.011Z,14.90
2018-06-28T03:06:48.468Z,14.80
2018-06-28T03:11:44.963Z,14.80
2018-06-28T03:14:13.405Z,14.70
2018-06-28T03:16:41.799Z,14.80
2018-06-28T03:19:10.268Z,14.80
2018-06-28T03:21:38.684Z,14.90
2018-06-28T03:24:07.516Z,14.80
2018-06-28T03:26:35.914Z,14.80
2018-06-28T03:29:04.369Z,14.60
2018-06-28T03:31:32.809Z,14.60
2018-06-28T03:34:01.230Z,14.50
2018-06-28T03:36:29.659Z,14.40
2018-06-28T03:38:58.074Z,14.40
2018-06-28T03:41:26.525Z,14.40
2018-06-28T03:43:54.944Z,14.60
2018-06-28T03:46:23.393Z,14.60
2018-06-28T03:48:51.787Z,14.60
2018-06-28T03:51:20.219Z,14.60
2018-06-28T03:53:48.616Z,14.60
2018-06-28T03:56:17.056Z,14.50
2018-06-28T03:58:45.479Z,14.50
2018-06-28T04:01:13.958Z,14.50
2018-06-28T04:03:42.340Z,14.50
2018-06-28T04:06:10.705Z,14.50
2018-06-28T04:08:39.079Z,14.50
2018-06-28T04:11:07.469Z,14.60
2018-06-28T04:13:35.799Z,14.80
2018-06-28T04:16:04.314Z,15.10
2018-06-28T04:18:32.820Z,15.40
2018-06-28T04:21:01.644Z,15.80
2018-06-28T04:23:30.044Z,16.30
2018-06-28T04:25:58.898Z,16.70
2018-06-28T04:28:27.310Z,16.80
2018-06-28T04:30:55.781Z,17.20
2018-06-28T04:33:24.194Z,17.40
2018-06-28T04:35:52.623Z,17.70
2018-06-28T04:38:21.042Z,17.90
2018-06-28T04:40:49.462Z,17.70
2018-06-28T04:43:17.851Z,17.80
2018-06-28T04:45:46.316Z,17.70
2018-06-28T04:48:14.764Z,17.80
2018-06-28T04:50:43.202Z,17.50
2018-06-28T04:53:11.622Z,17.40
2018-06-28T04:58:08.229Z,17.50
2018-06-28T05:00:37.128Z,17.70
2018-06-28T05:03:05.580Z,17.90
2018-06-28T05:05:33.995Z,17.60
2018-06-28T05:08:02.463Z,17.70
2018-06-28T05:10:30.879Z,17.30
2018-06-28T05:12:59.305Z,17.50
2018-06-28T05:15:27.731Z,17.50
2018-06-28T05:17:56.130Z,17.60
2018-06-28T05:20:24.481Z,17.80
2018-06-28T05:22:52.870Z,17.60
2018-06-28T05:25:21.544Z,17.70
2018-06-28T05:27:49.941Z,17.80
2018-06-28T05:30:18.413Z,18.00
2018-06-28T05:32:46.797Z,18.30
2018-06-28T05:35:15.178Z,18.40
2018-06-28T05:37:43.586Z,18.50
2018-06-28T05:40:11.951Z,18.00
2018-06-28T05:42:40.322Z,18.00
2018-06-28T05:45:08.732Z,17.80
2018-06-28T05:47:37.095Z,18.00
2018-06-28T05:50:05.539Z,18.40
2018-06-28T05:52:33.938Z,18.70
2018-06-28T05:55:02.307Z,18.50
2018-06-28T05:57:30.741Z,19.00
2018-06-28T05:59:59.212Z,19.50
2018-06-28T06:02:27.609Z,19.60
2018-06-28T06:04:55.974Z,19.60
2018-06-28T06:07:24.353Z,19.20
2018-06-28T06:09:52.691Z,19.00
2018-06-28T06:12:21.090Z,19.50
2018-06-28T06:14:49.439Z,19.70
2018-06-28T06:17:17.813Z,19.80
2018-06-28T06:19:46.236Z,19.90
2018-06-28T06:22:14.607Z,20.00
2018-06-28T06:24:42.981Z,19.80
2018-06-28T06:27:11.343Z,20.30
2018-06-28T06:29:39.786Z,20.70
2018-06-28T06:32:08.167Z,20.50
2018-06-28T06:34:36.526Z,19.70
2018-06-28T06:37:05.291Z,20.00
2018-06-28T06:39:33.670Z,20.00
2018-06-28T06:42:02.040Z,20.20
2018-06-28T06:44:30.446Z,20.60
2018-06-28T06:46:58.825Z,20.70
2018-06-28T06:49:27.210Z,20.40
2018-06-28T06:51:55.707Z,20.20
2018-06-28T06:54:24.110Z,20.40
2018-06-28T06:56:52.479Z,20.30
2018-06-28T06:59:20.886Z,20.40
2018-06-28T07:01:49.668Z,20.40
2018-06-28T07:04:17.972Z,20.50
2018-06-28T07:06:46.321Z,20.50
2018-06-28T07:09:14.696Z,20.80
2018-06-28T07:11:43.196Z,20.50
2018-06-28T07:14:11.975Z,20.20
2018-06-28T07:16:40.327Z,20.60
2018-06-28T07:19:09.155Z,20.60
2018-06-28T07:21:37.582Z,20.60
2018-06-28T07:24:06.091Z,20.70
2018-06-28T07:26:34.572Z,21.00
2018-06-28T07:29:03.210Z,21.10
2018-06-28T07:31:31.670Z,21.10
2018-06-28T07:34:00.323Z,21.10
2018-06-28T07:36:28.685Z,21.40
2018-06-28T07:38:57.146Z,21.60
2018-06-28T07:41:25.567Z,21.70
2018-06-28T07:43:54.037Z,21.60
2018-06-28T07:46:22.506Z,21.50
2018-06-28T07:48:50.942Z,21.70
2018-06-28T07:51:19.368Z,21.80
2018-06-28T07:53:47.967Z,21.50
2018-06-28T07:56:16.424Z,21.70
2018-06-28T07:58:44.840Z,22.00
2018-06-28T08:01:13.292Z,22.10
2018-06-28T08:03:41.700Z,21.80
2018-06-28T08:06:10.199Z,22.00
2018-06-28T08:08:38.614Z,22.30
2018-06-28T08:11:07.156Z,22.60
2018-06-28T08:13:35.577Z,22.70
2018-06-28T08:16:04.036Z,22.70
2018-06-28T08:18:32.589Z,22.60
2018-06-28T08:21:01.007Z,22.80
2018-06-28T08:23:29.446Z,23.00
2018-06-28T08:25:57.920Z,22.90
2018-06-28T08:28:26.389Z,22.80
2018-06-28T08:30:54.924Z,22.70
2018-06-28T08:33:23.339Z,22.30
2018-06-28T08:35:51.849Z,22.50
2018-06-28T08:38:20.229Z,22.90
2018-06-28T08:40:48.685Z,22.80
2018-06-28T08:43:17.190Z,22.50
2018-06-28T08:45:45.607Z,22.10
2018-06-28T08:48:14.052Z,22.20
2018-06-28T08:50:42.492Z,22.30
2018-06-28T08:53:10.915Z,22.60
2018-06-28T08:55:39.430Z,22.60
2018-06-28T08:58:07.887Z,22.70
2018-06-28T09:00:36.299Z,22.60
2018-06-28T09:03:04.871Z,22.90
2018-06-28T09:05:33.334Z,23.00
2018-06-28T09:08:01.735Z,23.00
2018-06-28T09:10:30.166Z,22.70
2018-06-28T09:12:58.578Z,22.60
2018-06-28T09:15:27.071Z,22.80
2018-06-28T09:17:55.521Z,23.10
2018-06-28T09:20:23.959Z,23.30
2018-06-28T09:22:52.364Z,23.10
2018-06-28T09:25:20.782Z,23.50
2018-06-28T09:27:49.224Z,23.80
2018-06-28T09:30:17.738Z,24.00
2018-06-28T09:32:46.327Z,24.10
2018-06-28T09:35:14.753Z,24.00
2018-06-28T09:37:43.193Z,23.80
2018-06-28T09:40:11.624Z,23.70
2018-06-28T09:42:40.042Z,23.50
2018-06-28T09:45:08.814Z,23.40
2018-06-28T09:47:37.442Z,23.50
2018-06-28T09:50:06.293Z,23.80
2018-06-28T09:52:34.761Z,23.80
2018-06-28T09:55:03.185Z,23.90
2018-06-28T09:57:31.682Z,23.40
2018-06-28T10:00:00.074Z,23.80
2018-06-28T10:02:28.510Z,24.10
2018-06-28T10:04:57.063Z,24.30
2018-06-28T10:07:25.544Z,24.40
2018-06-28T10:12:34.410Z,24.60
2018-06-28T10:15:02.865Z,25.00
2018-06-28T10:17:31.339Z,25.20
2018-06-28T10:22:28.195Z,25.10
2018-06-28T10:24:56.621Z,25.40
2018-06-28T10:27:25.084Z,25.50
2018-06-28T10:29:53.529Z,25.20
2018-06-28T10:32:21.962Z,24.90
2018-06-28T10:34:50.808Z,24.80
2018-06-28T10:37:19.260Z,24.90
2018-06-28T10:39:47.677Z,24.70
2018-06-28T10:42:16.158Z,24.40
2018-06-28T10:44:44.536Z,24.10
2018-06-28T10:47:13.048Z,24.10
2018-06-28T10:49:41.532Z,23.90
2018-06-28T10:52:09.955Z,23.80
2018-06-28T10:54:38.419Z,23.90
2018-06-28T10:57:07.210Z,23.70
2018-06-28T10:59:36.019Z,23.60
2018-06-28T11:02:04.396Z,23.30
2018-06-28T11:04:32.935Z,23.20
2018-06-28T11:07:01.313Z,23.10
2018-06-28T11:09:36.801Z,22.90
2018-06-28T11:12:08.994Z,22.80
2018-06-28T11:17:09.331Z,22.70
2018-06-28T11:19:37.811Z,22.60
2018-06-28T11:22:06.425Z,22.60
2018-06-28T11:24:34.886Z,22.60
2018-06-28T11:27:03.388Z,22.50
2018-06-28T11:29:31.890Z,22.40
2018-06-28T11:32:00.375Z,22.30
2018-06-28T11:34:28.839Z,22.50
2018-06-28T11:36:57.369Z,22.30
2018-06-28T11:39:25.918Z,22.60
2018-06-28T11:41:54.395Z,22.40
2018-06-28T11:44:22.917Z,22.60
2018-06-28T11:46:51.350Z,22.50
2018-06-28T11:49:19.869Z,22.60
2018-06-28T11:51:48.367Z,22.50
2018-06-28T11:54:17.309Z,22.50
2018-06-28T11:56:46.052Z,22.40
2018-06-28T12:01:42.662Z,22.00
2018-06-28T12:04:11.148Z,22.00
2018-06-28T12:06:39.577Z,21.90
2018-06-28T12:09:10.007Z,21.90
2018-06-28T12:11:38.450Z,21.70
2018-06-28T12:14:07.004Z,21.70
2018-06-28T12:16:35.449Z,22.00
2018-06-28T12:19:03.914Z,22.20
2018-06-28T12:21:32.347Z,22.30
2018-06-28T12:24:00.758Z,22.30
2018-06-28T12:26:29.239Z,22.40
2018-06-28T12:28:57.763Z,22.30
2018-06-28T12:31:26.208Z,22.30
2018-06-28T12:33:54.668Z,22.40
2018-06-28T12:36:23.040Z,22.50
2018-06-28T12:38:51.495Z,22.60
2018-06-28T12:41:20.073Z,22.70
2018-06-28T12:43:48.444Z,22.80
2018-06-28T12:46:16.887Z,22.90
2018-06-28T12:48:45.271Z,22.90
2018-06-28T12:51:13.778Z,22.80
2018-06-28T12:53:42.215Z,22.80
2018-06-28T12:56:21.256Z,22.70
2018-06-28T12:58:51.033Z,22.40
2018-06-28T13:01:19.661Z,22.30
2018-06-28T13:03:48.374Z,22.40
2018-06-28T13:06:17.203Z,22.30
2018-06-28T13:08:45.652Z,22.20
2018-06-28T13:11:14.209Z,22.20
2018-06-28T13:13:42.834Z,22.20
2018-06-28T13:16:13.029Z,22.10
2018-06-28T13:18:41.609Z,21.90
2018-06-28T13:21:10.345Z,21.90
2018-06-28T13:23:38.835Z,21.90
2018-06-28T13:26:07.402Z,21.90
2018-06-28T13:28:35.881Z,21.80
2018-06-28T13:31:04.316Z,21.80
2018-06-28T13:33:32.770Z,21.80
2018-06-28T13:36:01.277Z,21.80
2018-06-28T13:38:29.731Z,21.80
2018-06-28T13:40:58.285Z,21.90
2018-06-28T13:43:26.891Z,21.80
2018-06-28T13:45:55.332Z,21.80
2018-06-28T13:48:23.746Z,22.00
2018-06-28T13:50:52.708Z,22.00
2018-06-28T13:53:21.134Z,22.00
2018-06-28T13:55:49.549Z,22.00
2018-06-28T13:58:18.090Z,21.90
2018-06-28T14:00:46.505Z,22.00
2018-06-28T14:03:15.015Z,22.20
2018-06-28T14:05:43.466Z,22.60
2018-06-28T14:08:12.405Z,22.70
2018-06-28T14:10:40.998Z,22.30
2018-06-28T14:13:09.564Z,22.20
2018-06-28T14:15:38.036Z,22.30
2018-06-28T14:18:06.697Z,22.30
2018-06-28T14:20:35.362Z,22.00
2018-06-28T14:23:03.871Z,21.90
2018-06-28T14:25:32.402Z,21.80
2018-06-28T14:28:00.930Z,21.90
2018-06-28T14:30:29.375Z,21.80
2018-06-28T14:32:57.872Z,21.70
2018-06-28T14:35:26.384Z,21.60
2018-06-28T14:37:54.863Z,21.60
2018-06-28T14:40:23.330Z,21.50
2018-06-28T14:42:51.877Z,21.50
2018-06-28T14:45:20.363Z,21.50
2018-06-28T14:47:48.811Z,21.50
2018-06-28T14:50:17.336Z,21.40
2018-06-28T14:52:45.857Z,21.40
2018-06-28T14:55:14.385Z,21.40
2018-06-28T14:57:42.936Z,21.30
2018-06-28T15:00:11.511Z,21.20
2018-06-28T15:02:40.020Z,21.20
2018-06-28T15:05:08.700Z,21.20
2018-06-28T15:07:37.267Z,21.20
2018-06-28T15:10:05.856Z,21.20
2018-06-28T15:12:34.282Z,21.10
2018-06-28T15:15:02.818Z,21.20
2018-06-28T15:17:31.228Z,21.00
2018-06-28T15:19:59.814Z,20.90
2018-06-28T15:22:28.399Z,20.80
2018-06-28T15:24:56.895Z,20.50
2018-06-28T15:27:25.427Z,20.20
2018-06-28T15:29:54.035Z,20.10
2018-06-28T15:32:22.574Z,19.90
2018-06-28T15:34:51.101Z,20.00
2018-06-28T15:37:19.602Z,19.90
2018-06-28T15:39:48.123Z,19.80
2018-06-28T15:42:16.650Z,19.90
2018-06-28T15:44:45.203Z,19.90
2018-06-28T15:49:42.536Z,20.00
2018-06-28T15:52:10.987Z,20.00
2018-06-28T15:54:39.464Z,19.90
2018-06-28T15:57:08.133Z,19.90
2018-06-28T15:59:36.739Z,20.00
2018-06-28T16:02:05.631Z,19.90
2018-06-28T16:04:34.077Z,19.90
2018-06-28T16:07:02.521Z,19.90
2018-06-28T16:09:30.964Z,19.90
2018-06-28T16:11:59.400Z,19.90
2018-06-28T16:14:27.874Z,19.90
2018-06-28T16:16:56.340Z,19.80
2018-06-28T16:19:24.810Z,19.90
2018-06-28T16:21:53.136Z,19.80
2018-06-28T16:24:21.565Z,19.80
2018-06-28T16:26:49.973Z,19.80
2018-06-28T16:29:18.457Z,19.80
2018-06-28T16:31:46.831Z,19.80
2018-06-28T16:34:15.188Z,19.80
2018-06-28T16:36:43.604Z,19.70
2018-06-28T16:39:11.967Z,19.80
2018-06-28T16:41:40.343Z,19.80
2018-06-28T16:44:08.895Z,19.80
2018-06-28T16:46:37.394Z,19.90
2018-06-28T16:49:06.048Z,20.00
2018-06-28T16:51:34.568Z,19.90
2018-06-28T16:54:02.961Z,20.00
2018-06-28T16:56:31.491Z,20.00
2018-06-28T16:58:59.911Z,20.10
2018-06-28T17:01:28.276Z,20.20
2018-06-28T17:03:56.647Z,20.30
2018-06-28T17:06:25.068Z,20.30
2018-06-28T17:08:53.471Z,20.30
2018-06-28T17:11:21.924Z,20.30
2018-06-28T17:13:50.341Z,20.40
2018-06-28T17:16:18.767Z,20.40
2018-06-28T17:18:47.218Z,20.20
2018-06-28T17:21:15.678Z,20.20
2018-06-28T17:23:44.188Z,20.20
2018-06-28T17:26:12.611Z,20.00
2018-06-28T17:28:41.025Z,20.00
2018-06-28T17:31:09.465Z,19.90
2018-06-28T17:33:37.918Z,20.00
2018-06-28T17:36:06.418Z,20.00
2018-06-28T17:38:34.868Z,19.90
2018-06-28T17:41:03.326Z,19.90
2018-06-28T17:43:31.814Z,19.90
2018-06-28T17:46:00.318Z,19.80
2018-06-28T17:48:28.758Z,19.80
2018-06-28T17:50:57.211Z,19.80
2018-06-28T17:53:25.678Z,19.70
2018-06-28T17:55:54.213Z,19.70
2018-06-28T17:58:22.622Z,19.70
2018-06-28T18:00:51.074Z,19.50
2018-06-28T18:03:19.497Z,19.50
2018-06-28T18:05:47.947Z,19.40
2018-06-28T18:08:16.386Z,19.20
2018-06-28T18:10:44.877Z,19.10
2018-06-28T18:13:13.324Z,19.10
2018-06-28T18:15:41.743Z,19.10
2018-06-28T18:18:10.230Z,19.10
2018-06-28T18:20:38.636Z,19.10
2018-06-28T18:23:07.112Z,19.10
2018-06-28T18:25:35.597Z,19.00
2018-06-28T18:28:04.100Z,19.00
2018-06-28T18:30:32.542Z,18.90
2018-06-28T18:33:01.007Z,18.90
2018-06-28T18:35:29.440Z,18.80
2018-06-28T18:37:57.888Z,18.80
2018-06-28T18:40:26.317Z,18.70
2018-06-28T18:42:54.790Z,18.70
2018-06-28T18:45:23.235Z,18.70
2018-06-28T18:47:51.680Z,18.60
2018-06-28T18:50:20.139Z,18.60
2018-06-28T18:52:48.582Z,18.50
2018-06-28T18:55:17.280Z,18.50
2018-06-28T18:57:45.718Z,18.40
2018-06-28T19:00:14.127Z,18.40
2018-06-28T19:02:42.555Z,18.50
2018-06-28T19:05:10.986Z,18.40
2018-06-28T19:07:39.534Z,18.50
2018-06-28T19:10:13.432Z,18.30
2018-06-28T19:12:41.908Z,18.40
2018-06-28T19:15:15.711Z,18.30
2018-06-28T19:17:44.145Z,18.20
2018-06-28T19:20:12.577Z,18.30
2018-06-28T19:23:48.175Z,18.30
2018-06-28T19:26:16.992Z,18.20
2018-06-28T19:28:45.797Z,18.10
2018-06-28T19:33:47.627Z,18.10
2018-06-28T19:36:16.114Z,18.00
2018-06-28T19:38:49.799Z,18.10
2018-06-28T19:41:23.402Z,18.10
2018-06-28T19:43:52.045Z,18.00
2018-06-28T19:46:20.396Z,18.00
2018-06-28T19:48:48.800Z,18.00
2018-06-28T19:51:22.685Z,18.00
2018-06-28T19:53:51.095Z,17.90
2018-06-28T19:58:47.579Z,17.80
2018-06-28T20:01:21.299Z,17.80
2018-06-28T20:03:55.163Z,17.80
2018-06-28T20:06:23.524Z,17.70
2018-06-28T20:08:51.924Z,17.80
2018-06-28T20:11:20.295Z,17.80
2018-06-28T20:13:54.052Z,17.80
2018-06-28T20:16:27.890Z,17.80
2018-06-28T20:19:01.474Z,17.80
2018-06-28T20:21:29.851Z,17.80
2018-06-28T20:23:58.249Z,17.80
2018-06-28T20:26:31.927Z,17.80
2018-06-28T20:29:05.625Z,17.80
2018-06-28T20:31:39.398Z,17.90
2018-06-28T20:34:09.775Z,17.80
2018-06-28T20:36:38.228Z,17.80
2018-06-28T20:39:08.178Z,17.80
2018-06-28T20:41:36.608Z,17.80
2018-06-28T20:44:05.283Z,17.70
2018-06-28T20:46:33.666Z,17.70
2018-06-28T20:49:02.075Z,17.70
2018-06-28T20:51:30.443Z,17.80
2018-06-28T20:53:58.826Z,17.80
2018-06-28T20:56:27.231Z,17.70
2018-06-28T20:58:55.874Z,17.70
2018-06-28T21:01:24.231Z,17.70
2018-06-28T21:03:52.641Z,17.80
2018-06-28T21:06:21.859Z,17.80
2018-06-28T21:08:50.232Z,17.80
2018-06-28T21:11:18.592Z,17.80
2018-06-28T21:13:46.996Z,17.80
2018-06-28T21:16:15.378Z,17.80
2018-06-28T21:18:43.832Z,17.80
2018-06-28T21:21:12.303Z,17.80
2018-06-28T21:23:40.710Z,17.70
2018-06-28T21:26:09.159Z,17.60
2018-06-28T21:28:37.558Z,17.60
2018-06-28T21:31:05.980Z,17.60
2018-06-28T21:33:34.398Z,17.50
2018-06-28T21:36:02.839Z,17.50
2018-06-28T21:38:31.257Z,17.50
2018-06-28T21:40:59.684Z,17.50
2018-06-28T21:43:28.124Z,17.50
2018-06-28T21:45:56.552Z,17.50
2018-06-28T21:48:24.971Z,17.50
2018-06-28T21:50:53.400Z,17.60
2018-06-28T21:53:21.873Z,17.60
2018-06-28T21:55:50.333Z,17.60
2018-06-28T21:58:18.785Z,17.60
2018-06-28T22:00:47.252Z,17.60
2018-06-28T22:03:15.687Z,17.50
2018-06-28T22:05:44.099Z,17.60
2018-06-28T22:08:12.585Z,17.50
2018-06-28T22:10:40.955Z,17.50
2018-06-28T22:13:09.383Z,17.70
2018-06-28T22:15:37.830Z,17.60
2018-06-28T22:18:06.291Z,17.70
2018-06-28T22:20:34.851Z,17.70
2018-06-28T22:23:03.268Z,17.70
2018-06-28T22:25:31.994Z,17.60
2018-06-28T22:30:28.515Z,17.80
2018-06-28T22:32:56.894Z,17.70
2018-06-28T22:35:25.299Z,17.60
2018-06-28T22:37:53.815Z,17.70
2018-06-28T22:40:22.240Z,17.60
2018-06-28T22:42:50.716Z,17.60
2018-06-28T22:45:19.123Z,17.60
2018-06-28T22:47:47.613Z,17.60
2018-06-28T22:50:16.031Z,17.60
2018-06-28T22:52:44.459Z,17.60
2018-06-28T22:55:12.916Z,17.60
2018-06-28T22:57:41.349Z,17.60
2018-06-28T23:00:09.823Z,17.60
2018-06-28T23:02:39.062Z,17.60
2018-06-28T23:05:07.467Z,17.60
2018-06-28T23:07:35.885Z,17.50
2018-06-28T23:10:04.341Z,17.50
2018-06-28T23:15:00.855Z,17.50
2018-06-28T23:17:29.283Z,17.40
2018-06-28T23:19:57.715Z,17.40
2018-06-28T23:22:35.909Z,17.40
2018-06-28T23:25:04.301Z,17.40
2018-06-28T23:27:32.689Z,17.40
2018-06-28T23:30:01.051Z,17.50
2018-06-28T23:32:29.437Z,17.50
2018-06-28T23:34:57.808Z,17.40
2018-06-28T23:37:26.187Z,17.40
2018-06-28T23:39:54.828Z,17.50
2018-06-28T23:42:23.236Z,17.40
2018-06-28T23:44:51.584Z,17.40
2018-06-28T23:47:19.973Z,17.40
2018-06-28T23:49:48.402Z,17.40
2018-06-28T23:52:16.761Z,17.40
2018-06-28T23:54:45.166Z,17.30
2018-06-28T23:57:13.547Z,17.30
2018-06-28T23:59:41.940Z,17.30
